createdAt,value
2023-11-28T00:00:37.678Z,2.70
2023-11-28T00:03:04.765Z,2.70
2023-11-28T00:05:31.972Z,2.80
2023-11-28T00:08:01.446Z,2.80
2023-11-28T00:10:28.502Z,2.90
2023-11-28T00:12:55.447Z,2.90
2023-11-28T00:15:22.383Z,2.90
2023-11-28T00:17:49.494Z,2.90
2023-11-28T00:20:16.460Z,3.00
2023-11-28T00:22:43.272Z,3.00
2023-11-28T00:25:10.495Z,3.00
2023-11-28T00:27:37.347Z,3.00
2023-11-28T00:30:04.554Z,3.00
2023-11-28T00:34:58.241Z,3.00
2023-11-28T00:37:25.127Z,3.10
2023-11-28T00:39:52.073Z,3.10
2023-11-28T00:42:18.878Z,3.10
2023-11-28T00:44:45.866Z,3.10
2023-11-28T00:47:12.791Z,3.10
2023-11-28T00:49:46.064Z,3.10
2023-11-28T00:52:13.001Z,3.10
2023-11-28T00:54:40.247Z,3.10
2023-11-28T00:57:08.940Z,3.10
2023-11-28T00:59:37.284Z,3.10
2023-11-28T01:02:07.613Z,3.10
2023-11-28T01:04:34.618Z,3.10
2023-11-28T01:07:02.144Z,3.10
2023-11-28T01:09:28.990Z,3.10
2023-11-28T01:11:55.864Z,3.10
2023-11-28T01:14:22.719Z,3.10
2023-11-28T01:16:49.656Z,3.10
2023-11-28T01:19:16.561Z,3.20
2023-11-28T01:21:43.395Z,3.20
2023-11-28T01:24:10.211Z,3.20
2023-11-28T01:26:37.274Z,3.20
2023-11-28T01:29:05.131Z,3.20
2023-11-28T01:31:32.379Z,3.30
2023-11-28T01:33:59.279Z,3.30
2023-11-28T01:36:26.172Z,3.30
2023-11-28T01:38:52.960Z,3.30
2023-11-28T01:41:19.858Z,3.30
2023-11-28T01:43:46.778Z,3.30
2023-11-28T01:46:14.008Z,3.30
2023-11-28T01:48:40.908Z,3.40
2023-11-28T01:51:09.213Z,3.40
2023-11-28T01:53:37.053Z,3.40
2023-11-28T01:56:04.484Z,3.50
2023-11-28T01:58:31.707Z,3.50
2023-11-28T02:00:59.050Z,3.50
2023-11-28T02:03:28.345Z,3.50
2023-11-28T02:05:55.435Z,3.50
2023-11-28T02:08:22.283Z,3.50
2023-11-28T02:10:49.281Z,3.50
2023-11-28T02:13:16.626Z,3.50
2023-11-28T02:15:45.340Z,3.50
2023-11-28T02:18:13.941Z,3.50
2023-11-28T02:20:41.732Z,3.50
2023-11-28T02:23:09.209Z,3.50
2023-11-28T02:25:49.174Z,3.50
2023-11-28T02:28:20.398Z,3.50
2023-11-28T02:30:50.638Z,3.50
2023-11-28T02:33:18.117Z,3.50
2023-11-28T02:35:45.280Z,3.50
2023-11-28T02:38:14.457Z,3.50
2023-11-28T02:40:41.436Z,3.50
2023-11-28T02:43:08.566Z,3.50
2023-11-28T02:45:36.007Z,3.60
2023-11-28T02:48:03.101Z,3.60
2023-11-28T02:50:29.924Z,3.60
2023-11-28T02:52:56.834Z,3.60
2023-11-28T02:55:23.797Z,3.50
2023-11-28T02:57:50.604Z,3.50
2023-11-28T03:00:17.644Z,3.50
2023-11-28T03:02:44.722Z,3.50
2023-11-28T03:05:11.762Z,3.50
2023-11-28T03:07:38.656Z,3.50
2023-11-28T03:10:06.282Z,3.50
2023-11-28T03:12:33.162Z,3.50
2023-11-28T03:14:59.980Z,3.50
2023-11-28T03:17:26.876Z,3.60
2023-11-28T03:19:53.864Z,3.60
2023-11-28T03:22:21.022Z,3.60
2023-11-28T03:24:48.335Z,3.60
2023-11-28T03:27:15.368Z,3.60
2023-11-28T03:29:42.313Z,3.60
2023-11-28T03:32:09.269Z,3.60
2023-11-28T03:34:37.571Z,3.60
2023-11-28T03:37:04.470Z,3.60
2023-11-28T03:39:31.352Z,3.70
2023-11-28T03:41:58.177Z,3.70
2023-11-28T03:44:25.030Z,3.70
2023-11-28T03:46:51.916Z,3.60
2023-11-28T03:49:18.797Z,3.60
2023-11-28T03:51:45.598Z,3.60
2023-11-28T03:54:12.454Z,3.60
2023-11-28T03:56:39.280Z,3.60
2023-11-28T03:59:06.209Z,3.70
2023-11-28T04:01:34.365Z,3.70
2023-11-28T04:04:01.414Z,3.70
2023-11-28T04:06:28.357Z,3.70
2023-11-28T04:08:55.248Z,3.70
2023-11-28T04:11:22.152Z,3.70
2023-11-28T04:13:49.037Z,3.70
2023-11-28T04:16:19.315Z,3.70
2023-11-28T04:18:47.956Z,3.70
2023-11-28T04:21:22.753Z,3.60
2023-11-28T04:23:50.032Z,3.50
2023-11-28T04:26:16.882Z,3.50
2023-11-28T04:28:43.751Z,3.50
2023-11-28T04:31:18.565Z,3.50
2023-11-28T04:33:45.783Z,3.50
2023-11-28T04:36:16.439Z,3.50
2023-11-28T04:38:44.314Z,3.50
2023-11-28T04:41:14.791Z,3.60
2023-11-28T04:43:42.182Z,3.70
2023-11-28T04:46:09.881Z,3.70
2023-11-28T04:48:36.803Z,3.60
2023-11-28T04:51:03.826Z,3.60
2023-11-28T04:53:30.680Z,3.70
2023-11-28T04:55:57.561Z,3.70
2023-11-28T04:58:24.431Z,3.70
2023-11-28T05:00:51.855Z,3.70
2023-11-28T05:03:18.995Z,3.80
2023-11-28T05:05:46.007Z,3.80
2023-11-28T05:08:13.709Z,3.80
2023-11-28T05:10:40.685Z,3.80
2023-11-28T05:13:07.774Z,3.80
2023-11-28T05:15:34.703Z,3.80
2023-11-28T05:18:01.749Z,3.90
2023-11-28T05:20:28.716Z,3.90
2023-11-28T05:22:57.156Z,3.90
2023-11-28T05:25:24.864Z,3.90
2023-11-28T05:27:52.598Z,3.90
2023-11-28T05:30:19.591Z,3.90
2023-11-28T05:32:46.548Z,3.80
2023-11-28T05:35:13.585Z,3.90
2023-11-28T05:37:40.575Z,3.80
2023-11-28T05:40:10.944Z,3.90
2023-11-28T05:42:38.317Z,3.90
2023-11-28T05:45:07.270Z,3.90
2023-11-28T05:47:34.430Z,3.90
2023-11-28T05:50:02.273Z,3.90
2023-11-28T05:52:29.530Z,3.80
2023-11-28T05:54:56.511Z,3.80
2023-11-28T05:57:24.487Z,3.80
2023-11-28T05:59:54.177Z,3.80
2023-11-28T06:02:21.081Z,3.70
2023-11-28T06:04:47.981Z,3.80
2023-11-28T06:07:14.907Z,3.80
2023-11-28T06:09:41.777Z,3.80
2023-11-28T06:12:09.013Z,3.80
2023-11-28T06:14:37.724Z,3.70
2023-11-28T06:17:04.825Z,3.70
2023-11-28T06:19:33.279Z,3.70
2023-11-28T06:22:00.209Z,3.70
2023-11-28T06:24:27.225Z,3.80
2023-11-28T06:26:54.652Z,3.80
2023-11-28T06:29:21.710Z,3.90
2023-11-28T06:31:48.792Z,4.10
2023-11-28T06:34:15.904Z,4.20
2023-11-28T06:36:43.083Z,4.10
2023-11-28T06:39:09.896Z,4.00
2023-11-28T06:41:36.764Z,4.00
2023-11-28T06:44:04.390Z,4.00
2023-11-28T06:46:32.507Z,4.00
2023-11-28T06:48:59.700Z,3.90
2023-11-28T06:51:27.945Z,3.90
2023-11-28T06:53:55.550Z,3.90
2023-11-28T06:56:22.447Z,3.90
2023-11-28T06:58:49.434Z,3.90
2023-11-28T07:01:16.463Z,3.90
2023-11-28T07:03:43.792Z,4.00
2023-11-28T07:06:11.451Z,4.00
2023-11-28T07:08:38.585Z,4.00
2023-11-28T07:11:05.887Z,4.10
2023-11-28T07:13:34.484Z,4.10
2023-11-28T07:16:01.473Z,4.10
2023-11-28T07:18:28.319Z,4.10
2023-11-28T07:20:55.231Z,4.20
2023-11-28T07:23:22.569Z,4.20
2023-11-28T07:25:49.809Z,4.20
2023-11-28T07:28:16.981Z,4.30
2023-11-28T07:30:46.272Z,4.30
2023-11-28T07:33:13.263Z,4.30
2023-11-28T07:35:40.527Z,4.40
2023-11-28T07:38:07.462Z,4.40
2023-11-28T07:40:35.262Z,4.50
2023-11-28T07:43:02.357Z,4.40
2023-11-28T07:45:30.663Z,4.40
2023-11-28T07:48:00.900Z,4.50
2023-11-28T07:50:28.576Z,4.50
2023-11-28T07:52:55.886Z,4.50
2023-11-28T07:55:22.857Z,4.50
2023-11-28T07:57:50.071Z,4.60
2023-11-28T08:00:17.172Z,4.60
2023-11-28T08:02:44.149Z,4.90
2023-11-28T08:05:15.120Z,5.00
2023-11-28T08:07:44.338Z,5.00
2023-11-28T08:10:15.359Z,4.90
2023-11-28T08:12:42.589Z,5.00
2023-11-28T08:15:09.990Z,5.10
2023-11-28T08:17:37.218Z,5.10
2023-11-28T08:20:04.679Z,5.00
2023-11-28T08:22:31.782Z,4.90
2023-11-28T08:25:01.953Z,4.90
2023-11-28T08:27:28.991Z,4.90
2023-11-28T08:29:56.043Z,4.80
2023-11-28T08:32:23.075Z,4.80
2023-11-28T08:34:50.076Z,4.80
2023-11-28T08:37:17.092Z,4.70
2023-11-28T08:46:29.451Z,4.70
2023-11-28T08:46:31.466Z,4.70
2023-11-28T08:53:15.806Z,4.70
2023-11-28T08:59:16.304Z,4.70
2023-11-28T09:01:43.722Z,4.60
2023-11-28T09:04:10.995Z,4.60
2023-11-28T09:06:37.994Z,4.60
2023-11-28T09:09:05.216Z,4.60
2023-11-28T09:11:35.149Z,4.60
2023-11-28T09:17:51.722Z,4.60
2023-11-28T09:20:19.077Z,4.70
2023-11-28T09:22:46.904Z,4.60
2023-11-28T09:25:22.669Z,4.60
2023-11-28T09:27:53.307Z,4.50
2023-11-28T09:30:20.950Z,4.50
2023-11-28T09:32:48.013Z,4.40
2023-11-28T09:35:49.208Z,4.50
2023-11-28T09:42:16.071Z,4.40
2023-11-28T09:48:11.954Z,5.00
2023-11-28T09:57:46.277Z,4.80
2023-11-28T10:08:05.193Z,4.60
2023-11-28T10:11:15.822Z,4.40
2023-11-28T10:20:43.561Z,3.90
2023-11-28T10:23:35.344Z,3.80
2023-11-28T10:30:35.252Z,3.90
2023-11-28T10:33:34.023Z,3.80
2023-11-28T10:36:13.289Z,3.60
2023-11-28T10:39:21.560Z,3.70
2023-11-28T10:41:50.936Z,3.50
2023-11-28T10:44:44.753Z,3.00
2023-11-28T10:47:44.063Z,3.00
2023-11-28T10:50:17.937Z,3.00
2023-11-28T10:52:48.585Z,2.90
2023-11-28T10:58:38.850Z,2.90
2023-11-28T11:01:20.724Z,2.70
2023-11-28T11:09:53.015Z,2.40
2023-11-28T11:15:52.683Z,2.20
2023-11-28T11:18:48.618Z,2.20
2023-11-28T11:21:46.744Z,2.10
2023-11-28T11:24:23.662Z,2.10
2023-11-28T11:26:56.206Z,2.10
2023-11-28T11:29:36.951Z,2.00
2023-11-28T11:32:15.655Z,2.00
2023-11-28T11:35:05.955Z,2.00
2023-11-28T11:37:44.536Z,1.90
2023-11-28T11:40:31.407Z,2.00
2023-11-28T11:44:04.678Z,2.10
2023-11-28T11:46:19.928Z,2.20
2023-11-28T11:49:00.093Z,2.40
2023-11-28T11:51:30.508Z,2.50
2023-11-28T11:54:19.247Z,2.30
2023-11-28T11:56:46.275Z,2.10
2023-11-28T11:59:42.830Z,1.90
2023-11-28T12:02:13.702Z,2.10
2023-11-28T12:04:56.200Z,2.10
2023-11-28T12:07:37.133Z,2.10
2023-11-28T12:13:18.163Z,2.40
2023-11-28T12:15:48.710Z,2.60
2023-11-28T12:18:29.070Z,2.90
2023-11-28T12:20:58.822Z,2.80
2023-11-28T12:23:44.234Z,2.70
2023-11-28T12:26:15.071Z,2.30
2023-11-28T12:28:45.486Z,2.20
2023-11-28T12:31:54.665Z,2.20
2023-11-28T12:34:49.741Z,2.30
2023-11-28T12:37:46.966Z,2.30
2023-11-28T12:43:32.274Z,2.20
2023-11-28T12:46:07.378Z,2.40
2023-11-28T12:48:55.368Z,2.30
2023-11-28T12:51:26.177Z,2.30
2023-11-28T12:54:02.241Z,2.00
2023-11-28T12:56:36.426Z,2.00
2023-11-28T12:59:04.625Z,1.90
2023-11-28T13:01:35.037Z,1.90
2023-11-28T13:04:04.020Z,1.90
2023-11-28T13:06:47.102Z,1.90
2023-11-28T13:09:23.092Z,1.80
2023-11-28T13:11:50.197Z,1.70
2023-11-28T13:14:20.460Z,1.50
2023-11-28T13:19:41.155Z,1.20
2023-11-28T13:22:15.324Z,1.20
2023-11-28T13:24:42.749Z,1.10
2023-11-28T13:27:09.792Z,1.10
2023-11-28T13:29:39.552Z,1.00
2023-11-28T13:32:13.242Z,0.70
2023-11-28T13:34:47.436Z,0.50
2023-11-28T13:37:31.188Z,0.50
2023-11-28T13:39:59.626Z,0.40
2023-11-28T13:42:27.734Z,0.40
2023-11-28T13:44:54.841Z,0.50
2023-11-28T13:47:24.810Z,0.50
2023-11-28T13:49:57.970Z,0.50
2023-11-28T13:52:28.041Z,0.60
2023-11-28T13:54:59.265Z,0.60
2023-11-28T13:57:37.791Z,0.60
2023-11-28T14:00:20.060Z,0.50
2023-11-28T14:02:47.267Z,0.60
2023-11-28T14:05:20.257Z,0.70
2023-11-28T14:07:48.085Z,1.00
2023-11-28T14:10:18.534Z,1.00
2023-11-28T14:12:45.931Z,1.00
2023-11-28T14:15:18.772Z,1.10
2023-11-28T14:17:46.060Z,1.10
2023-11-28T14:20:13.745Z,1.20
2023-11-28T14:22:42.634Z,1.20
2023-11-28T14:25:11.655Z,1.20
2023-11-28T14:27:43.706Z,1.30
2023-11-28T14:30:14.980Z,1.30
2023-11-28T14:32:42.857Z,1.40
2023-11-28T14:35:17.856Z,1.30
2023-11-28T14:37:45.407Z,1.10
2023-11-28T14:40:16.792Z,1.10
2023-11-28T14:42:49.610Z,1.00
2023-11-28T14:45:17.313Z,1.10
2023-11-28T14:47:45.743Z,1.00
2023-11-28T14:50:13.398Z,1.00
2023-11-28T14:52:40.792Z,0.90
2023-11-28T14:55:14.542Z,0.90
2023-11-28T14:57:42.104Z,0.80
2023-11-28T15:00:14.342Z,0.80
2023-11-28T15:02:42.174Z,0.70
2023-11-28T15:05:23.319Z,0.70
2023-11-28T15:08:05.460Z,0.70
2023-11-28T15:10:33.526Z,0.70
2023-11-28T15:13:52.656Z,0.70
2023-11-28T15:16:31.081Z,0.80
2023-11-28T15:19:04.444Z,1.00
2023-11-28T15:21:37.512Z,1.00
2023-11-28T15:24:08.081Z,1.20
2023-11-28T15:26:44.226Z,1.00
2023-11-28T15:36:57.633Z,1.10
2023-11-28T15:46:37.009Z,1.10
2023-11-28T16:02:18.020Z,0.90
2023-11-28T16:07:44.568Z,0.90
2023-11-28T16:14:03.002Z,1.00
2023-11-28T16:17:48.551Z,0.90
2023-11-28T16:25:11.433Z,0.90
2023-11-28T16:36:32.315Z,0.80
2023-11-28T16:51:03.939Z,1.00
2023-11-28T16:53:51.138Z,0.90
2023-11-28T16:57:31.598Z,0.70
2023-11-28T16:59:28.658Z,0.60
2023-11-28T17:02:01.302Z,0.60
2023-11-28T17:04:29.231Z,0.50
2023-11-28T17:07:02.663Z,0.50
2023-11-28T17:09:36.842Z,0.50
2023-11-28T17:12:12.420Z,0.50
2023-11-28T17:16:30.004Z,0.50
2023-11-28T17:17:48.269Z,0.40
2023-11-28T17:23:20.731Z,0.30
2023-11-28T17:25:58.190Z,0.30
2023-11-28T17:28:56.860Z,0.20
2023-11-28T17:32:17.589Z,0.20
2023-11-28T17:34:46.464Z,0.20
2023-11-28T17:37:48.916Z,0.20
2023-11-28T17:40:30.357Z,0.20
2023-11-28T17:43:23.940Z,0.10
2023-11-28T17:45:54.081Z,0.20
2023-11-28T17:49:00.812Z,0.10
2023-11-28T17:51:33.152Z,0.10
2023-11-28T17:54:00.923Z,0.10
2023-11-28T17:56:54.263Z,0.10
2023-11-28T17:59:29.508Z,0.10
2023-11-28T18:01:56.942Z,0.10
2023-11-28T18:04:24.850Z,0.20
2023-11-28T18:06:59.737Z,0.20
2023-11-28T18:09:27.233Z,0.20
2023-11-28T18:11:57.923Z,0.20
2023-11-28T18:15:00.865Z,0.20
2023-11-28T18:17:31.110Z,0.20
2023-11-28T18:20:13.268Z,0.20
2023-11-28T18:26:24.867Z,0.10
2023-11-28T18:29:06.561Z,0.00
2023-11-28T18:31:36.874Z,0.00
2023-11-28T18:34:04.100Z,0.00
2023-11-28T18:36:31.034Z,0.00
2023-11-28T18:39:04.050Z,0.00
2023-11-28T18:41:56.276Z,0.00
2023-11-28T18:44:31.015Z,0.00
2023-11-28T18:46:57.962Z,0.00
2023-11-28T18:49:25.336Z,0.00
2023-11-28T18:51:55.998Z,-0.10
2023-11-28T18:54:24.271Z,-0.10
2023-11-28T18:56:51.577Z,-0.10
2023-11-28T18:59:24.324Z,-0.10
2023-11-28T19:01:59.133Z,-0.10
2023-11-28T19:04:26.225Z,-0.10
2023-11-28T19:06:53.428Z,-0.10
2023-11-28T19:09:20.821Z,-0.10
2023-11-28T19:11:48.165Z,-0.10
2023-11-28T19:14:15.733Z,-0.10
2023-11-28T19:16:42.873Z,-0.20
2023-11-28T19:19:17.458Z,-0.10
2023-11-28T19:21:50.228Z,-0.10
2023-11-28T19:24:17.657Z,-0.10
2023-11-28T19:26:49.075Z,-0.10
2023-11-28T19:29:19.039Z,-0.10
2023-11-28T19:31:49.151Z,-0.20
2023-11-28T19:34:24.533Z,-0.10
2023-11-28T19:36:52.061Z,-0.20
2023-11-28T19:42:02.502Z,-0.20
2023-11-28T19:44:30.032Z,-0.10
2023-11-28T19:47:02.863Z,-0.10
2023-11-28T19:49:30.238Z,-0.10
2023-11-28T19:52:08.385Z,-0.10
2023-11-28T19:54:40.386Z,-0.10
2023-11-28T19:57:07.748Z,-0.20
2023-11-28T19:59:35.937Z,-0.20
2023-11-28T20:02:03.502Z,-0.20
2023-11-28T20:04:30.880Z,-0.10
2023-11-28T20:07:00.593Z,-0.20
2023-11-28T20:09:27.963Z,-0.20
2023-11-28T20:12:01.136Z,-0.20
2023-11-28T20:14:28.410Z,-0.10
2023-11-28T20:16:59.076Z,-0.10
2023-11-28T20:19:26.543Z,-0.10
2023-11-28T20:21:57.122Z,-0.10
2023-11-28T20:24:36.939Z,-0.20
2023-11-28T20:27:04.121Z,-0.20
2023-11-28T20:29:55.764Z,-0.20
2023-11-28T20:32:27.126Z,-0.20
2023-11-28T20:38:16.133Z,-0.20
2023-11-28T20:40:43.077Z,-0.20
2023-11-28T20:43:09.881Z,-0.10
2023-11-28T20:45:37.277Z,-0.10
2023-11-28T20:48:04.125Z,-0.10
2023-11-28T20:50:31.249Z,-0.10
2023-11-28T20:52:59.893Z,-0.10
2023-11-28T20:55:26.787Z,-0.10
2023-11-28T20:57:53.641Z,0.00
2023-11-28T21:00:20.546Z,0.00
2023-11-28T21:02:48.341Z,0.00
2023-11-28T21:05:15.470Z,0.00
2023-11-28T21:07:42.423Z,-0.10
2023-11-28T21:10:10.085Z,-0.10
2023-11-28T21:12:39.128Z,-0.10
2023-11-28T21:15:08.546Z,-0.10
2023-11-28T21:17:38.451Z,-0.10
2023-11-28T21:20:07.015Z,-0.10
2023-11-28T21:22:34.320Z,-0.10
2023-11-28T21:25:01.220Z,-0.10
2023-11-28T21:27:28.178Z,-0.10
2023-11-28T21:29:55.929Z,-0.10
2023-11-28T21:32:22.805Z,-0.10
2023-11-28T21:34:49.683Z,-0.10
2023-11-28T21:37:17.472Z,-0.10
2023-11-28T21:39:44.353Z,-0.10
2023-11-28T21:42:11.215Z,-0.10
2023-11-28T21:44:38.127Z,-0.10
2023-11-28T21:47:11.096Z,-0.10
2023-11-28T21:49:38.767Z,-0.10
2023-11-28T21:52:06.774Z,-0.10
2023-11-28T21:54:33.966Z,-0.20
2023-11-28T21:57:00.806Z,-0.20
2023-11-28T21:59:27.684Z,-0.30
2023-11-28T22:01:54.621Z,-0.30
2023-11-28T22:04:21.559Z,-0.20
2023-11-28T22:06:49.343Z,-0.20
2023-11-28T22:09:17.424Z,-0.20
2023-11-28T22:11:44.566Z,-0.30
2023-11-28T22:14:11.718Z,-0.30
2023-11-28T22:16:39.496Z,-0.30
2023-11-28T22:19:07.101Z,-0.30
2023-11-28T22:21:33.977Z,-0.30
2023-11-28T22:24:01.065Z,-0.20
2023-11-28T22:26:28.128Z,-0.20
2023-11-28T22:28:54.944Z,-0.30
2023-11-28T22:31:21.968Z,-0.40
2023-11-28T22:33:49.075Z,-0.30
2023-11-28T22:36:16.165Z,-0.30
2023-11-28T22:38:43.124Z,-0.30
2023-11-28T22:41:12.983Z,-0.40
2023-11-28T22:43:39.848Z,-0.40
2023-11-28T22:46:06.937Z,-0.40
2023-11-28T22:48:33.819Z,-0.40
2023-11-28T22:51:00.739Z,-0.40
2023-11-28T22:53:28.717Z,-0.40
2023-11-28T22:55:55.587Z,-0.40
2023-11-28T22:58:22.404Z,-0.40
2023-11-28T23:00:49.209Z,-0.40
2023-11-28T23:03:16.118Z,-0.40
2023-11-28T23:05:43.001Z,-0.40
2023-11-28T23:08:09.913Z,-0.40
2023-11-28T23:10:36.770Z,-0.40
2023-11-28T23:13:05.002Z,-0.40
2023-11-28T23:15:32.076Z,-0.40
2023-11-28T23:17:59.042Z,-0.40
2023-11-28T23:20:26.156Z,-0.40
2023-11-28T23:22:58.322Z,-0.40
2023-11-28T23:25:26.037Z,-0.40
2023-11-28T23:27:54.530Z,-0.40
2023-11-28T23:30:23.139Z,-0.40
2023-11-28T23:32:50.846Z,-0.40
2023-11-28T23:35:18.376Z,-0.50
2023-11-28T23:37:45.725Z,-0.50
2023-11-28T23:40:12.914Z,-0.50
2023-11-28T23:42:46.751Z,-0.60
2023-11-28T23:45:17.895Z,-0.60
2023-11-28T23:47:46.158Z,-0.60
2023-11-28T23:50:13.062Z,-0.60
2023-11-28T23:52:39.892Z,-0.60
2023-11-28T23:55:07.221Z,-0.60
2023-11-28T23:57:34.067Z,-0.70
